createdAt,value
2023-04-03T00:00:05.405Z,2.47
2023-04-03T00:03:26.890Z,3.10
2023-04-03T00:06:48.517Z,2.73
2023-04-03T00:10:09.599Z,3.03
2023-04-03T00:13:30.192Z,2.70
2023-04-03T00:16:50.456Z,3.17
2023-04-03T00:20:11.386Z,3.10
2023-04-03T00:23:32.947Z,3.10
2023-04-03T00:26:53.201Z,2.53
2023-04-03T00:30:15.392Z,2.87
2023-04-03T00:33:36.145Z,2.70
2023-04-03T00:37:00.035Z,2.80
2023-04-03T00:40:22.254Z,2.37
2023-04-03T00:43:43.422Z,2.87
2023-04-03T00:47:04.445Z,2.83
2023-04-03T00:50:25.241Z,2.80
2023-04-03T00:53:46.810Z,2.67
2023-04-03T00:57:09.747Z,2.70
2023-04-03T01:00:31.847Z,2.50
2023-04-03T01:03:52.209Z,2.83
2023-04-03T01:07:16.794Z,2.90
2023-04-03T01:10:38.930Z,2.93
2023-04-03T01:14:12.996Z,2.67
2023-04-03T01:17:34.025Z,2.60
2023-04-03T01:21:24.749Z,2.93
2023-04-03T01:25:01.387Z,2.53
2023-04-03T01:28:24.190Z,2.70
2023-04-03T01:31:53.665Z,2.80
2023-04-03T01:35:15.532Z,2.63
2023-04-03T01:38:36.193Z,2.57
2023-04-03T01:41:56.415Z,2.60
2023-04-03T01:45:27.406Z,3.10
2023-04-03T01:48:49.766Z,2.60
2023-04-03T01:52:10.348Z,2.80
2023-04-03T01:55:31.394Z,3.20
2023-04-03T01:58:51.811Z,2.63
2023-04-03T02:02:13.438Z,3.10
2023-04-03T02:05:35.513Z,2.77
2023-04-03T02:08:55.963Z,2.80
2023-04-03T02:12:16.676Z,2.73
2023-04-03T02:15:39.553Z,2.50
2023-04-03T02:18:59.831Z,2.90
2023-04-03T02:22:22.190Z,2.20
2023-04-03T02:25:42.426Z,2.90
2023-04-03T02:29:03.668Z,2.93
2023-04-03T02:32:23.957Z,2.90
2023-04-03T02:35:45.160Z,2.53
2023-04-03T02:39:06.845Z,2.73
2023-04-03T02:42:29.293Z,2.60
2023-04-03T02:45:49.832Z,2.90
2023-04-03T02:49:10.267Z,2.80
2023-04-03T02:52:31.176Z,2.80
2023-04-03T02:55:53.474Z,2.97
2023-04-03T02:59:13.790Z,2.90
2023-04-03T03:02:35.375Z,3.40
2023-04-03T03:06:02.621Z,2.90
2023-04-03T03:09:22.936Z,2.60
2023-04-03T03:12:44.757Z,3.10
2023-04-03T03:16:06.286Z,3.20
2023-04-03T03:19:26.760Z,3.00
2023-04-03T03:22:47.037Z,2.90
2023-04-03T03:26:08.127Z,3.40
2023-04-03T03:29:30.526Z,3.37
2023-04-03T03:32:51.014Z,3.43
2023-04-03T03:36:11.482Z,3.97
2023-04-03T03:39:32.174Z,3.23
2023-04-03T03:42:52.378Z,3.90
2023-04-03T03:46:14.508Z,3.20
2023-04-03T03:49:35.135Z,3.20
2023-04-03T03:52:55.684Z,3.53
2023-04-03T03:56:16.149Z,3.70
2023-04-03T03:59:38.781Z,3.53
2023-04-03T04:03:01.802Z,3.93
2023-04-03T04:06:24.401Z,3.57
2023-04-03T04:09:46.792Z,3.17
2023-04-03T04:13:07.687Z,3.97
2023-04-03T04:16:28.706Z,3.80
2023-04-03T04:19:53.361Z,3.33
2023-04-03T04:23:13.684Z,3.70
2023-04-03T04:26:34.216Z,3.43
2023-04-03T04:29:54.992Z,3.50
2023-04-03T04:33:17.274Z,4.10
2023-04-03T04:36:41.641Z,3.90
2023-04-03T04:40:02.831Z,4.00
2023-04-03T04:43:23.739Z,3.80
2023-04-03T04:46:54.696Z,4.30
2023-04-03T04:50:15.902Z,4.30
2023-04-03T04:53:37.502Z,4.73
2023-04-03T04:56:58.769Z,4.70
2023-04-03T05:00:20.843Z,4.50
2023-04-03T05:03:41.518Z,5.07
2023-04-03T05:07:02.477Z,4.67
2023-04-03T05:10:26.433Z,4.73
2023-04-03T05:13:47.293Z,4.90
2023-04-03T05:17:07.702Z,5.80
2023-04-03T05:20:31.502Z,5.67
2023-04-03T05:23:53.490Z,5.13
2023-04-03T05:27:15.720Z,5.17
2023-04-03T05:30:39.838Z,5.17
2023-04-03T05:34:00.670Z,4.93
2023-04-03T05:37:23.020Z,5.07
2023-04-03T05:40:45.906Z,5.93
2023-04-03T05:44:07.847Z,5.30
2023-04-03T05:47:28.316Z,5.17
2023-04-03T05:50:49.054Z,5.23
2023-04-03T05:54:18.421Z,5.70
2023-04-03T05:57:39.518Z,5.90
2023-04-03T06:01:02.851Z,5.60
2023-04-03T06:04:24.172Z,6.03
2023-04-03T06:07:46.063Z,6.07
2023-04-03T06:11:07.223Z,6.83
2023-04-03T06:14:27.487Z,7.60
2023-04-03T06:17:49.248Z,10.20
2023-04-03T06:21:09.776Z,13.93
2023-04-03T06:24:31.430Z,9.20
2023-04-03T06:27:51.947Z,6.33
2023-04-03T06:31:12.297Z,5.20
2023-04-03T06:34:34.396Z,5.47
2023-04-03T06:37:54.619Z,3.87
2023-04-03T06:41:17.350Z,3.63
2023-04-03T06:44:38.123Z,3.87
2023-04-03T06:47:58.459Z,3.35
2023-04-03T06:51:21.621Z,3.95
2023-04-03T06:54:42.531Z,4.28
2023-04-03T06:58:02.929Z,4.47
2023-04-03T07:01:23.609Z,5.50
2023-04-03T07:04:43.996Z,4.60
2023-04-03T07:08:05.754Z,4.50
2023-04-03T07:11:27.077Z,4.10
2023-04-03T07:14:47.932Z,3.53
2023-04-03T07:18:08.225Z,3.33
2023-04-03T07:21:28.849Z,3.40
2023-04-03T07:24:50.397Z,3.13
2023-04-03T07:28:10.629Z,3.00
2023-04-03T07:31:36.567Z,3.08
2023-04-03T07:34:56.918Z,4.10
2023-04-03T07:38:18.185Z,2.90
2023-04-03T07:41:42.089Z,3.20
2023-04-03T07:45:02.542Z,3.10
2023-04-03T07:48:23.670Z,2.88
2023-04-03T07:51:43.987Z,3.08
2023-04-03T07:55:04.879Z,3.42
2023-04-03T07:58:26.860Z,3.30
2023-04-03T08:01:47.731Z,3.80
2023-04-03T08:05:08.889Z,3.28
2023-04-03T08:08:32.228Z,3.70
2023-04-03T08:11:54.499Z,3.45
2023-04-03T08:15:17.095Z,4.20
2023-04-03T08:18:37.456Z,4.15
2023-04-03T08:22:01.756Z,3.70
2023-04-03T08:25:22.217Z,4.18
2023-04-03T08:28:42.791Z,3.22
2023-04-03T08:32:05.712Z,3.40
2023-04-03T08:35:25.904Z,3.70
2023-04-03T08:38:46.266Z,4.28
2023-04-03T08:42:13.502Z,4.68
2023-04-03T08:45:40.418Z,4.00
2023-04-03T08:49:05.945Z,4.40
2023-04-03T08:52:29.263Z,4.70
2023-04-03T08:55:50.780Z,5.07
2023-04-03T08:59:13.213Z,4.95
2023-04-03T09:02:35.607Z,4.90
2023-04-03T09:06:04.967Z,4.80
2023-04-03T09:09:32.770Z,5.70
2023-04-03T09:13:00.482Z,5.05
2023-04-03T09:16:28.462Z,4.43
2023-04-03T09:19:54.115Z,4.50
2023-04-03T09:23:19.423Z,6.15
2023-04-03T09:26:41.342Z,6.68
2023-04-03T09:30:02.410Z,6.43
2023-04-03T09:33:24.678Z,6.10
2023-04-03T09:36:46.780Z,6.20
2023-04-03T09:40:28.866Z,6.90
2023-04-03T09:43:53.638Z,6.93
2023-04-03T09:47:26.104Z,6.90
2023-04-03T09:51:03.914Z,6.95
2023-04-03T09:54:34.680Z,6.93
2023-04-03T09:57:56.809Z,6.68
2023-04-03T10:01:22.995Z,5.90
2023-04-03T10:05:08.906Z,6.93
2023-04-03T10:08:32.020Z,5.60
2023-04-03T10:12:11.466Z,5.72
2023-04-03T10:15:33.413Z,6.18
2023-04-03T10:18:58.478Z,5.43
2023-04-03T10:22:26.386Z,6.38
2023-04-03T10:25:51.906Z,6.25
2023-04-03T10:29:30.389Z,6.15
2023-04-03T10:32:57.268Z,6.40
2023-04-03T10:36:26.571Z,7.00
2023-04-03T10:39:54.603Z,5.18
2023-04-03T10:43:22.636Z,5.35
2023-04-03T10:46:46.095Z,5.30
2023-04-03T10:50:25.506Z,5.38
2023-04-03T10:53:52.353Z,5.97
2023-04-03T10:57:14.335Z,5.32
2023-04-03T11:00:40.656Z,5.93
2023-04-03T11:04:07.078Z,5.90
2023-04-03T11:07:29.425Z,5.95
2023-04-03T11:10:52.429Z,5.68
2023-04-03T11:14:17.254Z,5.82
2023-04-03T11:17:44.227Z,5.60
2023-04-03T11:21:10.045Z,4.88
2023-04-03T11:24:31.962Z,5.40
2023-04-03T11:27:56.106Z,5.35
2023-04-03T11:31:24.508Z,5.90
2023-04-03T11:34:50.999Z,5.80
2023-04-03T11:38:19.769Z,5.50
2023-04-03T11:41:41.743Z,5.40
2023-04-03T11:45:35.424Z,5.47
2023-04-03T11:48:58.406Z,6.10
2023-04-03T11:52:53.969Z,5.90
2023-04-03T11:56:47.208Z,5.95
2023-04-03T12:00:50.507Z,5.75
2023-04-03T12:04:31.444Z,5.72
2023-04-03T12:08:21.504Z,5.82
2023-04-03T12:12:26.982Z,5.90
2023-04-03T12:15:57.677Z,6.00
2023-04-03T12:19:42.890Z,6.93
2023-04-03T12:23:24.193Z,5.93
2023-04-03T12:26:48.953Z,6.40
2023-04-03T12:30:17.192Z,7.03
2023-04-03T12:33:58.642Z,6.13
2023-04-03T12:37:27.652Z,6.13
2023-04-03T12:40:50.661Z,6.38
2023-04-03T12:44:40.195Z,6.10
2023-04-03T12:48:12.890Z,6.30
2023-04-03T12:51:36.808Z,5.93
2023-04-03T12:54:58.417Z,6.20
2023-04-03T12:58:23.036Z,5.90
2023-04-03T13:01:57.165Z,6.25
2023-04-03T13:05:19.398Z,5.88
2023-04-03T13:08:50.092Z,5.70
2023-04-03T13:12:12.526Z,6.22
2023-04-03T13:15:41.925Z,6.20
2023-04-03T13:19:17.913Z,5.95
2023-04-03T13:22:42.442Z,5.40
2023-04-03T13:26:05.994Z,5.75
2023-04-03T13:29:31.030Z,5.90
2023-04-03T13:32:53.657Z,5.78
2023-04-03T13:36:22.629Z,5.55
2023-04-03T13:39:59.336Z,6.15
2023-04-03T13:43:22.629Z,6.15
2023-04-03T13:46:50.982Z,6.07
2023-04-03T13:50:17.165Z,6.55
2023-04-03T13:53:44.027Z,6.35
2023-04-03T13:57:15.095Z,5.90
2023-04-03T14:00:39.356Z,6.13
2023-04-03T14:04:13.162Z,5.65
2023-04-03T14:07:33.448Z,5.53
2023-04-03T14:10:53.696Z,5.60
2023-04-03T14:14:16.237Z,5.38
2023-04-03T14:17:38.738Z,5.75
2023-04-03T14:21:00.268Z,5.55
2023-04-03T14:24:21.257Z,5.80
2023-04-03T14:27:42.699Z,5.75
2023-04-03T14:31:06.809Z,5.40
2023-04-03T14:34:28.587Z,4.97
2023-04-03T14:37:49.132Z,5.05
2023-04-03T14:41:16.589Z,5.82
2023-04-03T14:44:37.638Z,5.57
2023-04-03T14:47:58.576Z,5.95
2023-04-03T14:51:21.913Z,5.72
2023-04-03T14:54:42.214Z,5.15
2023-04-03T14:58:03.726Z,5.38
2023-04-03T15:01:24.708Z,5.00
2023-04-03T15:04:46.408Z,5.05
2023-04-03T15:08:10.463Z,6.00
2023-04-03T15:11:30.882Z,6.00
2023-04-03T15:14:59.900Z,5.93
2023-04-03T15:18:23.316Z,5.18
2023-04-03T15:21:43.662Z,6.10
2023-04-03T15:25:06.728Z,6.65
2023-04-03T15:28:27.949Z,6.30
2023-04-03T15:31:50.662Z,5.70
2023-04-03T15:35:11.283Z,6.55
2023-04-03T15:38:31.655Z,6.55
2023-04-03T15:41:54.696Z,6.90
2023-04-03T15:45:15.001Z,6.63
2023-04-03T15:48:38.140Z,6.72
2023-04-03T15:51:59.879Z,6.70
2023-04-03T15:55:20.413Z,6.68
2023-04-03T15:58:42.426Z,7.03
2023-04-03T16:02:03.835Z,6.93
2023-04-03T16:05:24.864Z,5.80
2023-04-03T16:08:45.810Z,5.90
2023-04-03T16:12:06.718Z,5.90
2023-04-03T16:15:28.398Z,5.85
2023-04-03T16:18:49.596Z,6.00
2023-04-03T16:22:10.569Z,5.47
2023-04-03T16:25:32.013Z,5.50
2023-04-03T16:28:52.348Z,5.85
2023-04-03T16:32:14.499Z,5.38
2023-04-03T16:35:34.942Z,5.70
2023-04-03T16:38:55.416Z,5.15
2023-04-03T16:42:16.461Z,4.85
2023-04-03T16:45:36.986Z,5.03
2023-04-03T16:48:59.354Z,4.80
2023-04-03T16:52:19.994Z,6.47
2023-04-03T16:55:41.170Z,4.32
2023-04-03T16:59:01.533Z,4.95
2023-04-03T17:02:21.851Z,6.15
2023-04-03T17:05:44.750Z,5.68
2023-04-03T17:09:04.996Z,5.40
2023-04-03T17:12:26.194Z,5.63
2023-04-03T17:15:46.468Z,5.60
2023-04-03T17:19:06.925Z,4.80
2023-04-03T17:22:29.041Z,4.93
2023-04-03T17:25:49.242Z,7.20
2023-04-03T17:29:09.949Z,5.30
2023-04-03T17:32:31.077Z,5.03
2023-04-03T17:35:51.767Z,5.00
2023-04-03T17:39:13.701Z,5.07
2023-04-03T17:42:34.102Z,5.07
2023-04-03T17:45:54.487Z,4.43
2023-04-03T17:49:15.095Z,4.60
2023-04-03T17:52:36.196Z,5.07
2023-04-03T17:55:58.690Z,5.00
2023-04-03T17:59:19.170Z,4.95
2023-04-03T18:02:40.119Z,5.03
2023-04-03T18:06:03.172Z,4.75
2023-04-03T18:09:24.524Z,5.07
2023-04-03T18:12:47.125Z,5.00
2023-04-03T18:16:07.805Z,5.70
2023-04-03T18:19:29.943Z,6.10
2023-04-03T18:22:51.693Z,7.13
2023-04-03T18:26:12.673Z,6.65
2023-04-03T18:29:38.203Z,7.18
2023-04-03T18:33:00.535Z,7.25
2023-04-03T18:36:21.184Z,6.93
2023-04-03T18:39:41.789Z,7.60
2023-04-03T18:43:03.353Z,9.23
2023-04-03T18:46:25.358Z,9.00
2023-04-03T18:49:46.647Z,7.60
2023-04-03T18:53:06.954Z,6.90
2023-04-03T18:56:28.096Z,6.63
2023-04-03T18:59:48.436Z,7.37
2023-04-03T19:03:10.681Z,6.87
2023-04-03T19:06:31.689Z,7.32
2023-04-03T19:09:51.921Z,6.80
2023-04-03T19:13:12.882Z,7.18
2023-04-03T19:16:34.155Z,7.40
2023-04-03T19:19:56.016Z,6.77
2023-04-03T19:23:17.412Z,6.43
2023-04-03T19:26:38.174Z,6.97
2023-04-03T19:29:58.493Z,6.40
2023-04-03T19:33:19.917Z,6.70
2023-04-03T19:36:42.446Z,6.63
2023-04-03T19:40:03.469Z,7.70
2023-04-03T19:43:24.150Z,7.40
2023-04-03T19:46:50.731Z,7.30
2023-04-03T19:50:12.295Z,7.73
2023-04-03T19:53:33.798Z,6.90
2023-04-03T19:56:54.083Z,7.37
2023-04-03T20:00:14.848Z,7.27
2023-04-03T20:03:35.692Z,8.10
2023-04-03T20:06:56.839Z,8.90
2023-04-03T20:10:18.526Z,7.63
2023-04-03T20:13:38.836Z,7.00
2023-04-03T20:16:59.629Z,6.10
2023-04-03T20:20:19.995Z,6.70
2023-04-03T20:23:40.881Z,9.00
2023-04-03T20:27:02.536Z,9.33
2023-04-03T20:30:22.890Z,9.60
2023-04-03T20:33:43.487Z,7.50
2023-04-03T20:37:04.489Z,8.37
2023-04-03T20:40:24.745Z,8.10
2023-04-03T20:43:47.791Z,7.43
2023-04-03T20:47:08.718Z,7.57
2023-04-03T20:50:29.017Z,6.83
2023-04-03T20:53:49.661Z,9.93
2023-04-03T20:57:12.076Z,10.63
2023-04-03T21:00:34.008Z,9.60
2023-04-03T21:03:57.175Z,7.00
2023-04-03T21:07:55.897Z,6.30
2023-04-03T21:11:54.100Z,7.83
2023-04-03T21:15:48.846Z,5.80
2023-04-03T21:19:28.687Z,6.17
2023-04-03T21:22:50.184Z,6.00
2023-04-03T21:26:10.719Z,5.80
2023-04-03T21:29:31.330Z,6.00
2023-04-03T21:32:52.350Z,6.30
2023-04-03T21:36:14.015Z,6.57
2023-04-03T21:39:34.308Z,6.40
2023-04-03T21:42:55.320Z,6.20
2023-04-03T21:46:15.802Z,5.93
2023-04-03T21:49:36.982Z,5.43
2023-04-03T21:52:58.555Z,6.07
2023-04-03T21:56:19.206Z,5.63
2023-04-03T21:59:39.518Z,5.90
2023-04-03T22:03:09.869Z,4.80
2023-04-03T22:06:31.145Z,4.60
2023-04-03T22:09:52.908Z,4.57
2023-04-03T22:13:13.090Z,4.33
2023-04-03T22:16:33.431Z,4.40
2023-04-03T22:19:53.659Z,5.07
2023-04-03T22:23:13.890Z,4.80
2023-04-03T22:26:35.488Z,4.60
2023-04-03T22:29:56.446Z,5.23
2023-04-03T22:33:16.685Z,4.50
2023-04-03T22:36:39.190Z,4.47
2023-04-03T22:39:59.747Z,4.67
2023-04-03T22:43:22.455Z,4.20
2023-04-03T22:46:43.152Z,4.97
2023-04-03T22:50:03.506Z,9.67
2023-04-03T22:53:23.751Z,9.57
2023-04-03T22:56:47.651Z,5.57
2023-04-03T23:00:10.012Z,4.00
2023-04-03T23:03:30.818Z,4.03
2023-04-03T23:06:51.110Z,4.23
2023-04-03T23:10:11.784Z,3.90
2023-04-03T23:13:31.997Z,4.43
2023-04-03T23:16:54.178Z,3.80
2023-04-03T23:20:14.545Z,4.00
2023-04-03T23:23:35.991Z,3.80
2023-04-03T23:26:56.840Z,3.70
2023-04-03T23:30:17.252Z,3.57
2023-04-03T23:33:39.284Z,4.63
2023-04-03T23:37:00.382Z,3.90
2023-04-03T23:40:20.644Z,3.40
2023-04-03T23:43:42.743Z,4.30
2023-04-03T23:47:03.009Z,4.00
2023-04-03T23:50:24.585Z,4.17
2023-04-03T23:53:45.225Z,3.60
2023-04-03T23:57:05.447Z,3.67
